This demonstration page uses our WeatherBlox Daily Observations layout. Learn more.

39.92423, -83.80882

Hourly Observations for September 12, 2016

Temp ( °F °C ) Dew Point ( °F °C ) Humidity (%) Winds ( mph kmh ) Pressure ( in mb ) Visibility ( mi km ) Precip ( " mm )
12:56 am 00:56 Clear 56 13.3 53 11.7 90 90 ENE 3 6 30.19 1022 10 16.0934 0 0
1:56 am 01:56 Clear 55 12.8 53 11.7 93 93 ENE 5 7 30.18 1022 10 16.0934 0 0
2:56 am 02:56 Clear 54 12.2 52 11.1 93 93 ENE 5 7 30.17 1022 10 16.0934 0 0
3:56 am 03:56 Clear 54 12.2 51 10.6 90 90 E 3 6 30.17 1022 10 16.0934 0 0
4:56 am 04:56 Clear 53 11.7 51 10.6 93 93 E 3 6 30.18 1022 10 16.0934 0 0
5:56 am 05:56 Clear 53 11.7 51 10.6 93 93 E 5 7 30.18 1022 10 16.0934 0 0
6:56 am 06:56 Clear 52 11.1 50 10 93 93 E 5 7 30.19 1022 10 16.0934 0 0
7:56 am 07:56 Sunny 54 12.2 52 11.1 93 93 E 5 7 30.2 1023 10 16.0934 0 0
8:56 am 08:56 Sunny 60 15.6 56 13.3 86 86 E 5 7 30.21 1023 10 16.0934 0 0
9:56 am 09:56 Sunny 66 18.9 58 14.4 75 75 E 6 9 30.21 1023 10 16.0934 0 0
10:56 am 10:56 Sunny 70 21.1 59 15 68 68 ESE 7 11 30.21 1023 10 16.0934 0 0
11:56 am 11:56 Sunny 73 22.8 56 13.3 55 55 E 8 13 30.19 1022 10 16.0934 0 0
1:56 pm 13:56 Sunny 75 23.9 56 13.3 52 52 ESE 6 9 30.16 1021 10 16.0934 0 0
2:56 pm 14:56 Sunny 77 25 56 13.3 48 48 VRB 3 6 30.14 1021 10 16.0934 0 0
3:56 pm 15:56 Sunny 77 25 56 13.3 48 48 VRB 3 6 30.12 1020 10 16.0934 0 0
5:56 pm 17:56 Sunny 77 25 57 13.9 50 50 E 7 11 30.1 1019 10 16.0934 0 0
6:56 pm 18:56 Sunny 74 23.3 58 14.4 57 57 E 3 6 30.09 1019 10 16.0934 0 0
7:56 pm 19:56 Clear 70 21.1 57 13.9 64 64 Calm 30.1 1019 10 16.0934 0 0
8:56 pm 20:56 Clear 64 17.8 58 14.4 81 81 Calm 30.11 1020 10 16.0934 0 0
9:56 pm 21:56 Clear 62 16.7 58 14.4 86 86 Calm 30.11 1020 10 16.0934 0 0
10:56 pm 22:56 Clear 59 15 56 13.3 90 90 SE 3 6 30.11 1020 10 16.0934 0 0
11:56 pm 23:56 Clear 58 14.4 56 13.3 93 93 Calm 30.11 1020 10 16.0934 0 0

Powered by AerisWeather